Time;durP1;ratioP1;P1;durP2;ratioP2;P2;SDS_P1;SDS_P2;PMS_P1;PMS_P2;Temp;Humidity;BMP_temperature;BMP_pressure;BME280_temperature;BME280_humidity;BME280_pressure;Samples;Min_cycle;Max_cycle;Signal;HPM_P1;HPM_P2
2022/04/29 00:02:05;;;;;;;5.85;5.25;;;;;;;17.82;55.96;99996.00;5034610;28;20032;-86
2022/04/29 00:04:30;;;;;;;7.35;5.53;;;;;;;17.28;56.19;99915.34;5034815;28;20025;-86
2022/04/29 00:06:56;;;;;;;7.05;5.85;;;;;;;17.42;56.51;99972.13;5034733;28;20067;-85
2022/04/29 00:09:22;;;;;;;6.20;5.25;;;;;;;17.04;56.53;99884.81;5034553;28;20033;-86
2022/04/29 00:11:47;;;;;;;5.65;5.05;;;;;;;17.71;56.42;100014.34;5034915;28;20025;-86
2022/04/29 00:14:13;;;;;;;6.43;5.35;;;;;;;17.33;56.61;99950.22;5016772;28;20465;-86
2022/04/29 00:16:38;;;;;;;6.57;5.97;;;;;;;17.61;56.43;99991.78;5016787;28;20109;-86
2022/04/29 00:19:04;;;;;;;7.03;5.68;;;;;;;17.54;56.69;99990.97;5034751;28;20013;-86
2022/04/29 00:21:29;;;;;;;7.45;5.40;;;;;;;17.04;56.55;99934.69;5034800;28;20071;-86
2022/04/29 00:23:56;;;;;;;6.45;5.25;;;;;;;17.10;56.34;99924.03;5034838;28;20045;-86
2022/04/29 00:26:21;;;;;;;7.38;6.00;;;;;;;15.66;56.86;99727.91;5016839;28;20029;-86
2022/04/29 00:28:47;;;;;;;7.95;6.57;;;;;;;16.26;56.85;99819.19;5034433;28;20028;-86
2022/04/29 00:31:13;;;;;;;6.50;5.82;;;;;;;17.21;56.91;99981.25;5016667;28;20543;-86
2022/04/29 00:33:38;;;;;;;6.63;5.90;;;;;;;16.71;56.82;99894.78;5033096;28;20018;-86
2022/04/29 00:36:04;;;;;;;6.38;5.78;;;;;;;17.42;56.88;100012.19;5016405;28;20028;-86
2022/04/29 00:38:29;;;;;;;6.68;5.97;;;;;;;17.04;56.75;99956.84;5016457;28;20581;-86
2022/04/29 00:40:54;;;;;;;6.72;5.68;;;;;;;17.24;57.06;99988.03;5034136;28;20025;-86
2022/04/29 00:43:20;;;;;;;7.30;5.93;;;;;;;17.12;57.01;99953.16;5034250;28;20108;-85
2022/04/29 00:45:45;;;;;;;8.95;6.88;;;;;;;17.42;57.17;100004.19;5015987;28;20033;-86
2022/04/29 00:48:11;;;;;;;6.50;5.78;;;;;;;17.03;57.22;99941.88;5015728;28;20454;-86
2022/04/29 00:50:36;;;;;;;7.60;6.07;;;;;;;16.72;57.33;99915.09;5015707;28;20053;-86
2022/04/29 00:53:03;;;;;;;6.75;5.70;;;;;;;17.04;57.58;99978.19;5033436;28;20025;-86
2022/04/29 00:55:30;;;;;;;7.50;6.47;;;;;;;16.70;57.45;99912.63;5015490;28;20029;-85
2022/04/29 00:58:07;;;;;;;6.75;6.05;;;;;;;17.14;58.00;99991.13;5033214;28;20069;-86
2022/04/29 01:00:33;;;;;;;6.85;6.15;;;;;;;16.66;57.98;99907.94;5033338;28;20025;-86
2022/04/29 01:03:00;;;;;;;7.32;6.65;;;;;;;16.64;57.68;99908.09;5033463;28;20079;-86
2022/04/29 01:05:26;;;;;;;7.85;6.22;;;;;;;17.17;57.51;99980.03;5033392;28;20021;-86
2022/04/29 01:07:52;;;;;;;6.53;5.93;;;;;;;17.21;57.64;99986.59;5033364;28;20495;-86
2022/04/29 01:10:20;;;;;;;7.85;6.00;;;;;;;17.18;57.64;99981.69;5033600;28;20175;-86
2022/04/29 01:12:53;;;;;;;7.57;6.00;;;;;;;16.52;57.52;99873.28;5016232;28;20429;-86
2022/04/29 01:15:19;;;;;;;7.18;5.78;;;;;;;16.20;57.60;99818.16;5015880;28;20421;-85
2022/04/29 01:17:47;;;;;;;7.63;6.00;;;;;;;16.24;57.40;99819.38;5033279;28;20033;-86
2022/04/29 01:20:15;;;;;;;7.22;5.95;;;;;;;17.23;57.39;99973.03;5033517;28;20033;-86
2022/04/29 01:22:42;;;;;;;7.00;6.30;;;;;;;17.25;57.31;99977.13;5033561;28;20027;-85
2022/04/29 01:25:08;;;;;;;7.00;5.90;;;;;;;17.18;57.34;99980.84;5033173;28;20017;-85
2022/04/29 01:27:34;;;;;;;7.25;6.38;;;;;;;17.29;57.37;99988.22;5033110;28;20083;-86
2022/04/29 01:30:09;;;;;;;7.10;6.40;;;;;;;16.87;57.40;99921.00;5015434;28;20459;-85
2022/04/29 01:32:36;;;;;;;6.35;5.45;;;;;;;16.43;57.27;99857.72;5033061;28;20025;-85
2022/04/29 01:35:02;;;;;;;8.98;6.13;;;;;;;16.47;57.43;99882.91;5032946;28;20029;-86
2022/04/29 01:37:28;;;;;;;7.47;5.57;;;;;;;16.99;57.82;99978.00;5032869;28;20029;-86
2022/04/29 01:39:53;;;;;;;6.88;6.22;;;;;;;17.08;57.84;99975.94;5032824;28;20563;-86
2022/04/29 01:42:19;;;;;;;8.23;6.35;;;;;;;16.56;57.43;99880.84;5032752;28;20391;-85
2022/04/29 01:44:48;;;;;;;7.63;6.22;;;;;;;16.13;57.59;99825.34;5032450;28;20018;-86
2022/04/29 01:47:13;;;;;;;7.85;6.95;;;;;;;16.22;57.51;99832.09;5032606;28;20025;-86
2022/04/29 01:49:39;;;;;;;7.93;6.78;;;;;;;17.00;57.95;99960.16;5032322;28;20117;-86
2022/04/29 01:52:04;;;;;;;7.30;6.53;;;;;;;16.28;57.86;99887.22;5032404;28;20057;-86
2022/04/29 01:54:30;;;;;;;7.32;6.50;;;;;;;16.67;57.78;99890.91;5032905;28;20018;-86
2022/04/29 01:56:56;;;;;;;8.50;5.93;;;;;;;16.50;57.72;99855.84;5034364;28;20045;-86
2022/04/29 01:59:21;;;;;;;7.65;6.95;;;;;;;16.84;57.48;99898.22;5015174;28;20075;-86
2022/04/29 02:01:47;;;;;;;8.68;5.88;;;;;;;17.07;57.38;99935.09;5033019;28;20482;-86
2022/04/29 02:04:13;;;;;;;6.82;6.20;;;;;;;16.98;57.38;99924.88;5032764;28;20460;-86
2022/04/29 02:06:39;;;;;;;6.97;6.28;;;;;;;16.93;57.48;99935.34;5032738;28;20500;-85
2022/04/29 02:09:05;;;;;;;8.82;6.70;;;;;;;16.14;57.36;99801.16;5015380;28;20025;-85
2022/04/29 02:11:31;;;;;;;7.65;5.65;;;;;;;16.56;57.30;99848.84;5032120;28;20025;-85
2022/04/29 02:13:57;;;;;;;7.70;6.05;;;;;;;16.35;57.30;99826.78;5032024;28;20387;-85
2022/04/29 02:16:22;;;;;;;7.70;6.03;;;;;;;16.88;57.60;99930.63;5031991;28;20036;-85
2022/04/29 02:18:48;;;;;;;8.20;6.70;;;;;;;16.53;57.32;99866.91;5031797;28;20508;-85
2022/04/29 02:21:13;;;;;;;7.63;6.93;;;;;;;16.95;57.59;99927.94;5014090;28;20108;-85
2022/04/29 02:23:39;;;;;;;7.55;6.72;;;;;;;16.25;57.83;99831.69;5031750;28;20025;-86
2022/04/29 02:26:04;;;;;;;6.72;6.13;;;;;;;16.28;57.82;99833.13;5031565;28;20092;-86
2022/04/29 02:28:31;;;;;;;8.50;6.72;;;;;;;16.21;58.05;99820.63;5031880;28;20079;-86
2022/04/29 02:30:57;;;;;;;8.15;6.85;;;;;;;16.29;57.67;99846.22;5032090;28;20022;-86
2022/04/29 02:33:23;;;;;;;7.82;6.40;;;;;;;16.02;57.83;99783.38;5031615;28;20035;-86
2022/04/29 02:35:48;;;;;;;6.63;6.03;;;;;;;16.19;57.80;99857.31;5031294;28;20067;-85
2022/04/29 02:38:14;;;;;;;7.28;6.57;;;;;;;16.15;57.71;99807.31;5013900;28;20053;-85
2022/04/29 02:40:39;;;;;;;8.13;6.55;;;;;;;16.27;57.76;99837.63;5031520;28;20414;-86
2022/04/29 02:43:05;;;;;;;7.50;6.70;;;;;;;16.89;57.96;99950.13;5014123;28;20041;-85
2022/04/29 02:45:30;;;;;;;7.15;6.40;;;;;;;16.45;58.06;99880.47;5031594;28;20025;-86
2022/04/29 02:47:56;;;;;;;6.93;6.18;;;;;;;16.86;58.12;99954.03;5031935;28;20044;-86
2022/04/29 02:50:21;;;;;;;8.45;6.00;;;;;;;16.18;58.09;99841.53;5031783;28;20028;-85
2022/04/29 02:52:47;;;;;;;6.57;5.97;;;;;;;16.60;58.41;99914.88;5031836;28;20021;-85
2022/04/29 02:55:12;;;;;;;7.78;7.00;;;;;;;16.48;58.04;99906.69;5031319;28;20074;-85
2022/04/29 02:57:38;;;;;;;6.50;5.90;;;;;;;16.52;58.11;99907.91;5013834;28;20045;-86
2022/04/29 03:00:04;;;;;;;6.40;5.78;;;;;;;16.25;57.94;99868.97;5031598;28;20025;-86
2022/04/29 03:02:29;;;;;;;6.78;6.13;;;;;;;16.30;57.93;99895.81;5031921;28;20502;-86
2022/04/29 03:04:55;;;;;;;6.80;5.90;;;;;;;16.58;58.25;99924.94;5031579;28;20028;-85
2022/04/29 03:07:20;;;;;;;8.35;6.28;;;;;;;16.87;58.07;99969.00;5031652;28;20021;-86
2022/04/29 03:09:48;;;;;;;6.95;6.35;;;;;;;16.42;58.07;99901.38;5013842;28;20029;-85
2022/04/29 03:12:14;;;;;;;8.45;6.78;;;;;;;16.14;58.06;99862.44;5031634;28;20061;-85
2022/04/29 03:14:40;;;;;;;7.20;6.55;;;;;;;16.12;58.04;99906.28;5013662;28;20033;-85
2022/04/29 03:17:05;;;;;;;9.05;6.15;;;;;;;16.49;58.14;99926.19;5031303;28;20032;-85
2022/04/29 03:19:31;;;;;;;8.18;6.55;;;;;;;16.59;58.16;99934.56;5031235;28;20025;-85
2022/04/29 03:21:57;;;;;;;8.63;7.10;;;;;;;16.56;58.12;99944.81;5013365;28;20049;-85
2022/04/29 03:24:22;;;;;;;7.70;6.90;;;;;;;16.23;58.48;99888.88;5031395;28;20072;-86
2022/04/29 03:26:48;;;;;;;8.82;6.60;;;;;;;16.62;58.22;99965.31;5031491;28;20080;-86
2022/04/29 03:29:13;;;;;;;8.48;6.65;;;;;;;15.34;58.55;99767.56;5013412;28;20079;-86
2022/04/29 03:31:39;;;;;;;7.03;6.32;;;;;;;16.34;58.43;99917.56;5031350;28;20021;-86
2022/04/29 03:34:05;;;;;;;7.13;6.53;;;;;;;15.63;58.24;99816.97;5031139;28;20104;-86
2022/04/29 03:36:30;;;;;;;9.65;6.90;;;;;;;16.46;58.42;99972.72;5031031;28;20417;-85
2022/04/29 03:38:56;;;;;;;6.93;6.00;;;;;;;16.11;58.51;99917.97;5031133;28;20018;-85
2022/04/29 03:41:22;;;;;;;7.97;6.20;;;;;;;16.19;58.46;99933.75;5013750;28;20037;-85
2022/04/29 03:43:47;;;;;;;6.80;6.10;;;;;;;15.98;58.66;99908.13;5013854;28;20018;-86
2022/04/29 03:46:12;;;;;;;8.45;5.85;;;;;;;15.49;58.89;99833.88;5013593;28;20017;-86
2022/04/29 03:51:22;;;;;;;6.72;6.13;;;;;;;16.30;59.02;99975.75;5031367;28;20111;-86
2022/04/29 03:53:50;;;;;;;6.80;6.00;;;;;;;16.68;59.17;100010.69;5030973;28;20483;-86
2022/04/29 03:56:17;;;;;;;7.75;7.05;;;;;;;15.72;59.25;99858.34;5030948;28;20486;-86
2022/04/29 03:58:43;;;;;;;7.68;6.43;;;;;;;16.30;59.28;99965.09;5030944;28;20052;-86
2022/04/29 04:01:10;;;;;;;9.55;7.03;;;;;;;16.47;59.94;100008.19;5013327;28;20422;-86
2022/04/29 04:03:35;;;;;;;7.50;6.50;;;;;;;16.34;59.61;99969.00;5031171;28;20029;-86
2022/04/29 04:08:46;;;;;;;10.50;6.82;;;;;;;16.16;59.55;99915.50;5034574;28;20474;-85
2022/04/29 04:11:11;;;;;;;8.48;6.60;;;;;;;16.36;59.50;99977.63;5034132;28;20486;-85
2022/04/29 04:13:37;;;;;;;7.97;7.18;;;;;;;16.80;59.71;100038.34;5035657;28;20021;-85
2022/04/29 04:16:03;;;;;;;9.07;7.90;;;;;;;16.04;59.52;99893.19;5045498;28;20026;-86
2022/04/29 04:18:28;;;;;;;16.27;13.73;;;;;;;16.20;59.48;99917.56;5046878;28;20021;-86
2022/04/29 04:20:53;;;;;;;24.52;17.33;;;;;;;16.30;59.43;99933.13;5045431;28;20052;-87
2022/04/29 04:23:19;;;;;;;29.15;20.27;;;;;;;16.80;59.77;99994.88;5046207;28;20056;-86
2022/04/29 04:25:44;;;;;;;22.55;16.33;;;;;;;16.78;59.48;99992.41;5019525;28;20406;-86
2022/04/29 04:28:13;;;;;;;22.92;14.65;;;;;;;17.05;59.33;100035.84;5034235;28;20566;-86
2022/04/29 04:30:39;;;;;;;16.25;11.77;;;;;;;16.80;59.47;99993.03;5034242;28;20029;-86
2022/04/29 04:33:04;;;;;;;12.52;11.23;;;;;;;16.68;59.87;99983.19;5016782;28;20033;-85
2022/04/29 04:35:30;;;;;;;14.32;11.82;;;;;;;16.50;59.68;99944.63;5034334;28;20039;-86
2022/04/29 04:37:55;;;;;;;12.48;11.02;;;;;;;17.07;59.49;100028.47;5016694;28;20021;-86
2022/04/29 04:40:20;;;;;;;14.93;11.30;;;;;;;16.99;59.41;100017.19;5035408;28;20490;-86
2022/04/29 04:42:46;;;;;;;14.68;12.45;;;;;;;16.50;59.49;99927.81;5016865;28;20399;-86
2022/04/29 04:45:12;;;;;;;14.23;11.18;;;;;;;17.19;59.08;100031.34;5034207;28;20025;-86
2022/04/29 04:47:38;;;;;;;12.95;11.38;;;;;;;17.14;59.10;100023.16;5033706;28;20030;-86
2022/04/29 04:50:04;;;;;;;12.82;11.52;;;;;;;16.82;58.98;99971.47;5016002;28;20398;-86
2022/04/29 04:52:29;;;;;;;14.45;12.75;;;;;;;17.34;58.69;100036.44;5033893;28;20100;-86
2022/04/29 04:54:55;;;;;;;15.43;11.77;;;;;;;16.87;58.44;99978.84;5033626;28;20414;-86
2022/04/29 04:57:20;;;;;;;15.55;12.43;;;;;;;17.29;58.51;100042.41;5033215;28;20046;-85
2022/04/29 04:59:45;;;;;;;12.38;11.18;;;;;;;17.31;58.77;100040.34;5015857;28;20029;-86
2022/04/29 05:02:11;;;;;;;14.27;11.82;;;;;;;16.67;58.06;99920.22;5033383;28;20017;-86
2022/04/29 05:04:36;;;;;;;14.93;12.68;;;;;;;17.16;57.93;100007.75;5015477;28;20371;-86
2022/04/29 05:07:03;;;;;;;12.40;11.10;;;;;;;17.10;57.99;100000.59;5033017;28;20032;-86
2022/04/29 05:09:29;;;;;;;14.38;12.07;;;;;;;16.95;58.07;99954.63;5033444;28;20079;-85
2022/04/29 05:11:55;;;;;;;14.90;12.40;;;;;;;17.13;57.87;99968.16;5016046;28;20029;-86
2022/04/29 05:14:20;;;;;;;14.73;13.13;;;;;;;17.09;57.74;99957.06;5015452;28;20033;-85
2022/04/29 05:16:46;;;;;;;13.93;12.40;;;;;;;17.00;57.67;99952.97;5033213;28;20100;-86
2022/04/29 05:19:11;;;;;;;17.25;12.85;;;;;;;17.03;57.64;99947.22;5033051;28;20104;-85
2022/04/29 05:21:36;;;;;;;14.10;11.95;;;;;;;16.85;57.49;99923.06;5033450;28;20017;-86
2022/04/29 05:24:02;;;;;;;15.38;11.95;;;;;;;17.43;57.61;100001.28;5033693;28;20132;-85
2022/04/29 05:26:27;;;;;;;15.23;13.20;;;;;;;17.04;57.48;99922.19;5033590;28;20079;-86
2022/04/29 05:28:53;;;;;;;17.80;14.15;;;;;;;17.18;57.39;99948.84;5015733;28;20035;-86
2022/04/29 05:31:18;;;;;;;16.17;14.45;;;;;;;17.12;57.34;99980.66;5015361;28;20112;-86
2022/04/29 05:33:44;;;;;;;15.77;14.18;;;;;;;17.73;57.42;100046.19;5032860;28;20039;-85
2022/04/29 05:36:11;;;;;;;16.13;13.55;;;;;;;17.77;57.23;100045.53;5032764;28;20083;-86
2022/04/29 05:44:07;;;;;;;17.27;14.60;;;;;;;17.74;57.71;100053.97;5052099;28;20031;-86
2022/04/29 05:46:35;;;;;;;15.23;13.63;;;;;;;17.82;57.75;100050.25;5029907;28;20071;-86
2022/04/29 05:49:01;;;;;;;13.88;12.32;;;;;;;17.58;57.24;100013.56;5052658;28;20560;-86
2022/04/29 05:51:26;;;;;;;15.38;13.25;;;;;;;17.24;57.20;99956.81;5051762;28;20033;-87
2022/04/29 05:53:51;;;;;;;18.33;15.07;;;;;;;17.81;57.10;100029.09;5033805;28;20417;-86
2022/04/29 05:56:17;;;;;;;17.38;13.80;;;;;;;17.27;57.16;99936.91;5055264;28;20032;-86
2022/04/29 05:58:42;;;;;;;15.57;13.85;;;;;;;17.13;57.03;99912.13;5057554;28;20053;-86
2022/04/29 06:01:07;;;;;;;14.00;12.50;;;;;;;17.33;56.56;99947.53;5058702;28;20099;-86
2022/04/29 06:03:33;;;;;;;17.23;13.50;;;;;;;17.50;56.58;99955.88;5056959;28;20032;-86
2022/04/29 06:05:58;;;;;;;17.23;15.45;;;;;;;17.10;56.41;99865.34;5035512;28;20020;-86
2022/04/29 06:08:24;;;;;;;17.30;14.98;;;;;;;17.51;56.51;99919.31;5051278;28;20110;-85
2022/04/29 06:10:49;;;;;;;17.05;14.27;;;;;;;18.18;56.00;100044.31;5033661;28;20056;-86
2022/04/29 06:13:14;;;;;;;18.55;14.27;;;;;;;17.78;55.69;99943.00;5051200;28;20043;-86
2022/04/29 06:15:40;;;;;;;18.10;14.77;;;;;;;18.35;55.47;100048.13;5051233;28;20104;-86
2022/04/29 06:18:06;;;;;;;18.70;14.70;;;;;;;17.72;55.68;99957.22;5018707;28;20032;-85
2022/04/29 06:20:31;;;;;;;16.45;14.70;;;;;;;17.85;55.67;99955.53;5035421;28;20025;-86
2022/04/29 06:22:57;;;;;;;14.73;13.20;;;;;;;18.01;55.43;99971.06;5031629;28;20029;-86
2022/04/29 06:25:24;;;;;;;16.17;13.73;;;;;;;18.54;55.47;100061.56;5029683;28;20131;-86
2022/04/29 06:27:50;;;;;;;19.20;14.57;;;;;;;18.50;55.41;100071.06;5023681;28;20497;-86
2022/04/29 06:30:16;;;;;;;15.68;14.00;;;;;;;18.02;55.34;99972.69;5040170;28;20021;-86
2022/04/29 06:32:41;;;;;;;18.25;15.48;;;;;;;17.08;55.16;99813.19;5035032;28;20083;-86
2022/04/29 06:35:07;;;;;;;16.25;14.32;;;;;;;17.87;55.08;99959.63;5050236;28;20032;-86
2022/04/29 06:37:34;;;;;;;17.08;15.38;;;;;;;17.09;55.18;99863.69;5016518;28;20036;-86
2022/04/29 06:39:59;;;;;;;15.73;14.13;;;;;;;18.20;55.54;100030.75;5036409;28;20036;-86
2022/04/29 06:42:24;;;;;;;15.68;14.10;;;;;;;18.13;55.67;100016.59;5036529;28;20025;-86
2022/04/29 06:44:50;;;;;;;15.88;14.18;;;;;;;18.47;55.49;100074.16;5033399;28;20501;-86
2022/04/29 06:47:16;;;;;;;16.15;14.10;;;;;;;17.64;55.86;99968.13;5015960;28;20022;-86
2022/04/29 06:49:43;;;;;;;16.67;14.93;;;;;;;17.52;55.92;99924.44;5013616;28;20033;-85
2022/04/29 06:52:09;;;;;;;18.10;15.50;;;;;;;18.28;56.06;100055.38;5041857;28;20108;-85
2022/04/29 06:54:34;;;;;;;22.83;20.40;;;;;;;18.31;55.97;100044.25;5018705;28;20108;-85
2022/04/29 06:56:59;;;;;;;16.48;14.52;;;;;;;17.19;55.70;99843.75;5041114;28;20131;-85
2022/04/29 06:59:26;;;;;;;19.77;16.88;;;;;;;18.21;55.84;100021.69;5034441;28;20036;-85
2022/04/29 07:01:51;;;;;;;19.90;16.33;;;;;;;18.48;56.06;100076.63;5024888;28;20536;-86
2022/04/29 07:04:17;;;;;;;18.23;16.35;;;;;;;18.17;55.79;100010.63;5048887;28;20048;-86
2022/04/29 07:06:42;;;;;;;18.45;16.63;;;;;;;18.04;55.62;100002.69;5046642;28;20075;-86
2022/04/29 07:09:08;;;;;;;16.33;14.50;;;;;;;18.79;55.50;100073.16;5042627;28;20028;-86
2022/04/29 07:11:33;;;;;;;16.48;14.80;;;;;;;18.24;54.98;100007.91;5018181;28;20433;-86
2022/04/29 07:13:59;;;;;;;16.17;14.40;;;;;;;18.64;55.17;100083.34;5022561;28;20116;-86
2022/04/29 07:16:24;;;;;;;16.80;15.10;;;;;;;18.56;55.10;100065.66;5025497;28;20025;-86
2022/04/29 07:18:50;;;;;;;17.00;15.20;;;;;;;18.06;55.04;99972.03;5013321;28;20079;-86
2022/04/29 07:21:15;;;;;;;17.05;14.10;;;;;;;18.45;55.05;100044.97;5033386;28;20519;-86
2022/04/29 07:23:41;;;;;;;18.55;13.98;;;;;;;18.05;54.88;99986.44;5047080;28;20028;-85
2022/04/29 07:26:06;;;;;;;16.70;14.98;;;;;;;18.77;54.91;100093.94;5048721;28;20021;-86
2022/04/29 07:28:31;;;;;;;16.20;14.60;;;;;;;18.37;54.76;100005.13;5031495;28;20478;-86
2022/04/29 07:30:57;;;;;;;15.15;13.32;;;;;;;18.56;54.49;100046.94;5045958;28;20031;-86
2022/04/29 07:33:23;;;;;;;19.63;16.92;;;;;;;18.74;54.61;100038.22;5023313;28;20501;-86
2022/04/29 07:44:01;;;;;;;19.67;17.20;;;;;;;19.00;53.95;100035.28;5051232;28;20051;-86
2022/04/29 07:46:26;;;;;;;16.50;14.73;;;;;;;18.60;53.76;99988.50;5037023;28;20438;-86
2022/04/29 07:48:52;;;;;;;17.40;15.55;;;;;;;19.35;53.76;100081.09;5036225;28;20025;-86
2022/04/29 07:51:18;;;;;;;16.70;15.00;;;;;;;19.02;53.72;100046.59;5042232;28;20045;-87
2022/04/29 07:53:43;;;;;;;17.15;15.50;;;;;;;18.76;53.94;100001.34;5043623;28;20567;-86
2022/04/29 07:56:09;;;;;;;17.10;15.30;;;;;;;19.10;53.91;100069.56;5024142;28;20025;-87
2022/04/29 07:58:34;;;;;;;16.45;14.82;;;;;;;18.61;53.73;99992.81;5035672;28;20068;-86
2022/04/29 08:01:01;;;;;;;14.10;12.60;;;;;;;18.63;53.56;99985.44;5053630;28;20017;-86
2022/04/29 08:03:27;;;;;;;16.70;14.80;;;;;;;18.86;53.49;100019.59;5047079;28;20079;-85
2022/04/29 08:05:53;;;;;;;17.30;15.57;;;;;;;17.93;53.26;99872.47;5037567;28;20009;-86
2022/04/29 08:08:19;;;;;;;18.58;16.67;;;;;;;18.55;53.32;99972.28;5037971;28;20021;-86
2022/04/29 08:10:45;;;;;;;17.27;15.55;;;;;;;19.25;53.52;100096.00;5023518;28;20494;-86
2022/04/29 08:13:11;;;;;;;16.30;14.48;;;;;;;18.48;53.73;99998.25;5042080;28;20487;-86
2022/04/29 08:15:37;;;;;;;19.13;16.05;;;;;;;19.09;54.01;100086.66;5052245;28;20045;-85
2022/04/29 08:18:04;;;;;;;21.17;16.38;;;;;;;18.98;53.92;100066.81;5052180;28;20108;-87
2022/04/29 08:20:30;;;;;;;22.15;19.85;;;;;;;18.30;53.97;99985.66;5025310;28;20129;-86
2022/04/29 08:22:56;;;;;;;19.92;17.10;;;;;;;18.21;53.94;99941.50;5028045;28;20037;-86
2022/04/29 08:25:21;;;;;;;17.13;15.52;;;;;;;18.91;54.23;100066.03;5046148;28;20063;-85
2022/04/29 08:27:47;;;;;;;18.30;16.10;;;;;;;18.79;54.15;100029.53;5025040;28;20025;-86
2022/04/29 08:30:13;;;;;;;18.95;17.08;;;;;;;18.34;54.39;99965.47;5036992;28;20354;-86
2022/04/29 08:32:41;;;;;;;15.82;14.18;;;;;;;18.63;54.52;99996.13;5043962;28;20017;-86
2022/04/29 08:35:09;;;;;;;17.48;15.52;;;;;;;18.37;54.46;99955.16;5033943;28;20025;-87
2022/04/29 08:37:36;;;;;;;16.45;14.02;;;;;;;18.36;54.55;99947.34;5016500;28;20480;-87
2022/04/29 08:40:01;;;;;;;16.52;14.77;;;;;;;18.65;54.10;99983.34;5047839;28;20025;-86
2022/04/29 08:42:28;;;;;;;15.73;13.45;;;;;;;19.10;53.45;100007.19;5040420;28;20029;-86
2022/04/29 08:44:53;;;;;;;15.55;13.93;;;;;;;19.64;52.90;100059.97;5042121;28;20094;-86
2022/04/29 08:47:19;;;;;;;14.02;12.60;;;;;;;19.53;52.33;100029.41;5031190;28;20442;-86
2022/04/29 08:49:46;;;;;;;13.07;11.73;;;;;;;19.63;51.43;100018.16;5051193;28;20036;-86
2022/04/29 08:52:14;;;;;;;12.48;11.30;;;;;;;19.51;50.48;99959.16;5040170;28;20430;-86
2022/04/29 09:00:20;;;;;;;12.68;11.35;;;;;;;20.70;46.48;99976.16;5041480;28;20027;-87
2022/04/29 09:02:46;;;;;;;13.90;11.85;;;;;;;21.04;46.05;100006.75;5026113;28;20037;-86
2022/04/29 09:05:11;;;;;;;14.13;12.75;;;;;;;20.92;45.67;99941.53;5016491;28;20044;-86
2022/04/29 09:07:57;;;;;;;14.82;13.43;;;;;;;21.93;44.49;100044.91;5031221;28;20047;-86
2022/04/29 09:10:24;;;;;;;12.60;10.48;;;;;;;21.58;44.00;99968.97;5042389;28;20040;-87
2022/04/29 09:12:50;;;;;;;11.38;10.27;;;;;;;22.02;43.44;100018.44;5036594;28;20502;-85
2022/04/29 09:15:17;;;;;;;10.82;9.75;;;;;;;22.33;42.53;100039.50;5028263;28;20569;-86
2022/04/29 09:17:47;;;;;;;9.88;8.98;;;;;;;22.65;41.98;100031.69;5047318;28;20107;-87
2022/04/29 09:20:18;;;;;;;10.88;9.80;;;;;;;22.45;42.61;99988.31;5028134;28;20418;-86
2022/04/29 09:22:46;;;;;;;12.07;10.10;;;;;;;22.47;42.81;99965.47;5041971;28;20025;-86
2022/04/29 09:25:12;;;;;;;10.07;9.07;;;;;;;23.15;42.49;100028.19;5035490;28;20028;-86
2022/04/29 09:27:54;;;;;;;13.35;10.55;;;;;;;23.31;41.86;100008.44;5048710;28;20021;-86
2022/04/29 09:30:41;;;;;;;10.70;9.70;;;;;;;23.28;41.48;99986.59;5028259;28;20021;-85
2022/04/29 09:33:17;;;;;;;11.77;10.60;;;;;;;23.70;41.47;100021.88;5023624;28;20395;-86
2022/04/29 09:35:43;;;;;;;10.07;9.10;;;;;;;23.67;41.15;99980.06;5052049;28;20108;-87
2022/04/29 09:40:55;;;;;;;8.82;7.85;;;;;;;23.59;37.94;99905.03;5048324;28;20032;-87
2022/04/29 09:43:39;;;;;;;10.60;9.55;;;;;;;24.11;36.81;99966.50;5038105;28;20029;-85
2022/04/29 09:46:10;;;;;;;9.50;7.85;;;;;;;24.57;37.06;100012.81;5039859;28;20028;-87
2022/04/29 09:48:54;;;;;;;9.13;7.85;;;;;;;24.59;36.92;100006.09;5035809;28;20041;-87
2022/04/29 09:51:41;;;;;;;8.95;8.05;;;;;;;24.69;36.13;99994.53;5031838;28;20042;-87
2022/04/29 09:54:11;;;;;;;9.25;8.35;;;;;;;24.73;36.82;100001.03;5031769;28;20076;-87
2022/04/29 09:56:38;;;;;;;9.48;8.57;;;;;;;24.87;36.96;99998.72;5031188;28;20029;-85
2022/04/29 09:59:05;;;;;;;9.52;8.60;;;;;;;25.05;36.61;99992.91;5047769;28;20502;-84
2022/04/29 10:01:31;;;;;;;16.75;14.95;;;;;;;24.90;36.82;99993.59;5050873;28;20135;-86
2022/04/29 10:04:00;;;;;;;10.75;9.65;;;;;;;24.01;37.22;99883.59;5051813;28;20087;-85
2022/04/29 10:06:26;;;;;;;10.90;9.75;;;;;;;24.08;37.94;99975.91;5051581;28;20490;-86
2022/04/29 10:08:53;;;;;;;12.00;10.18;;;;;;;23.43;38.27;99885.19;5033758;28;20079;-85
2022/04/29 10:11:23;;;;;;;9.20;8.30;;;;;;;24.13;38.21;99995.91;5047782;28;20103;-85
2022/04/29 10:13:50;;;;;;;13.37;10.13;;;;;;;23.98;38.43;99921.06;5050758;28;20025;-86
2022/04/29 10:16:18;;;;;;;11.15;8.30;;;;;;;23.71;37.96;99884.13;5051720;28;20081;-86
2022/04/29 10:21:40;;;;;;;10.02;8.00;;;;;;;23.94;36.90;99883.00;5051517;28;20039;-86
2022/04/29 10:24:06;;;;;;;9.95;8.95;;;;;;;24.67;36.54;99973.19;5051413;28;20533;-85
2022/04/29 10:26:32;;;;;;;10.65;9.63;;;;;;;24.48;37.25;99974.66;5033267;28;20027;-85
2022/04/29 10:28:58;;;;;;;8.82;8.02;;;;;;;23.54;36.70;99875.31;5051340;28;20480;-85
2022/04/29 10:31:27;;;;;;;9.30;8.27;;;;;;;23.71;36.77;99921.06;5051562;28;20035;-86
2022/04/29 10:33:52;;;;;;;13.73;9.77;;;;;;;23.82;36.82;99933.59;5029299;28;20025;-85
2022/04/29 10:36:24;;;;;;;8.40;7.60;;;;;;;23.66;36.80;99894.06;5031846;28;20030;-87
2022/04/29 10:38:58;;;;;;;;;;;;;;;24.32;37.37;99973.72;5033007;28;20104;-86
2022/04/29 10:41:27;;;;;;;9.00;8.05;;;;;;;24.52;37.34;99975.75;5031974;28;19909;-87
2022/04/29 10:43:55;;;;;;;10.82;8.55;;;;;;;24.77;36.30;99975.16;5031802;28;20053;-87
2022/04/29 10:46:40;;;;;;;9.38;8.38;;;;;;;24.94;35.49;99969.56;5043389;28;20123;-87
2022/04/29 10:49:26;;;;;;;8.80;7.90;;;;;;;25.14;35.57;99980.50;5032138;28;20037;-87
2022/04/29 10:51:53;;;;;;;10.88;9.88;;;;;;;24.69;35.29;99860.34;5049712;28;20029;-84
2022/04/29 10:54:34;;;;;;;10.13;9.10;;;;;;;25.49;34.37;99965.53;5033880;28;20429;-85
2022/04/29 10:57:02;;;;;;;7.97;7.23;;;;;;;25.47;34.49;99916.31;5051877;28;20051;-85
2022/04/29 10:59:27;;;;;;;9.35;7.93;;;;;;;25.86;33.42;99925.63;5034165;28;20040;-83
2022/04/29 11:02:08;;;;;;;8.15;7.00;;;;;;;26.20;32.78;99903.47;5047150;28;20032;-86
2022/04/29 11:04:34;;;;;;;7.03;6.30;;;;;;;26.77;32.54;99953.78;5051724;28;20032;-87
2022/04/29 11:07:00;;;;;;;9.57;8.52;;;;;;;26.36;32.28;99896.97;5051158;28;20021;-84
2022/04/29 11:09:47;;;;;;;8.73;7.85;;;;;;;26.50;32.48;99954.91;5052187;28;20028;-84
2022/04/29 11:12:34;;;;;;;9.07;7.85;;;;;;;26.01;32.42;99940.22;5051834;28;20024;-85
2022/04/29 11:15:05;;;;;;;8.82;7.88;;;;;;;26.04;32.12;99939.72;5052201;28;20075;-86
2022/04/29 11:17:35;;;;;;;11.82;6.82;;;;;;;26.16;32.39;99934.84;5035867;28;20159;-85
2022/04/29 11:20:32;;;;;;;10.07;8.48;;;;;;;26.16;31.54;99913.19;5045308;28;20490;-85
2022/04/29 11:25:51;;;;;;;8.30;7.50;;;;;;;25.91;32.28;99874.22;5042939;28;20086;-86
2022/04/29 11:28:17;;;;;;;10.98;8.27;;;;;;;25.72;32.00;99804.69;5038291;28;20032;-86
2022/04/29 11:30:43;;;;;;;8.85;8.05;;;;;;;26.18;32.00;99903.72;5035306;28;20547;-84
2022/04/29 11:33:09;;;;;;;8.88;7.97;;;;;;;26.12;32.02;99898.59;5054656;28;20091;-85
2022/04/29 11:35:34;;;;;;;8.52;7.72;;;;;;;25.85;32.24;99855.56;5054860;28;20482;-86
2022/04/29 11:38:00;;;;;;;9.80;7.82;;;;;;;26.28;31.79;99876.66;5031340;28;20418;-85
2022/04/29 11:40:26;;;;;;;9.85;8.95;;;;;;;26.47;32.02;99924.84;5028956;28;20109;-85
2022/04/29 11:42:52;;;;;;;9.90;8.60;;;;;;;25.61;32.35;99847.13;5046613;28;20131;-86
2022/04/29 11:45:21;;;;;;;9.95;8.95;;;;;;;25.73;32.46;99861.22;5026274;28;20540;-85
2022/04/29 11:47:46;;;;;;;11.35;10.15;;;;;;;25.97;32.37;99894.78;5038031;28;20094;-85
2022/04/29 11:50:12;;;;;;;11.45;10.02;;;;;;;25.98;32.46;99895.59;5027442;28;20021;-84
2022/04/29 11:52:39;;;;;;;10.23;7.35;;;;;;;25.89;32.22;99899.91;5034896;28;20017;-85
2022/04/29 11:55:05;;;;;;;9.70;8.75;;;;;;;25.75;32.36;99905.03;5026637;28;20036;-83
2022/04/29 11:57:42;;;;;;;8.95;8.15;;;;;;;25.31;32.36;99843.31;5039179;28;20499;-85